sensor_id;sensor_type;location;lat;lon;timestamp;P1;durP1;ratioP1;P2;durP2;ratioP2
37309;SDS011;23195;47.744;7.358;2024-01-10T06:54:00;105.33;;;36.73;;
37309;SDS011;23195;47.744;7.358;2024-01-10T06:56:34;102.23;;;37.03;;
37309;SDS011;23195;47.744;7.358;2024-01-10T06:59:09;98.57;;;37.40;;
37309;SDS011;23195;47.744;7.358;2024-01-10T07:01:53;105.37;;;37.43;;
37309;SDS011;23195;47.744;7.358;2024-01-10T07:04:22;98.70;;;36.77;;
37309;SDS011;23195;47.744;7.358;2024-01-10T07:06:59;104.53;;;37.67;;
37309;SDS011;23195;47.744;7.358;2024-01-10T07:09:42;99.17;;;37.13;;
37309;SDS011;23195;47.744;7.358;2024-01-10T07:12:08;135.97;;;53.90;;
37309;SDS011;23195;47.744;7.358;2024-01-10T07:14:33;103.83;;;38.53;;
37309;SDS011;23195;47.744;7.358;2024-01-10T07:16:59;110.67;;;41.83;;
37309;SDS011;23195;47.744;7.358;2024-01-10T07:19:25;118.37;;;41.37;;
37309;SDS011;23195;47.744;7.358;2024-01-10T07:21:51;124.73;;;45.13;;
37309;SDS011;23195;47.744;7.358;2024-01-10T07:24:19;110.57;;;41.23;;
37309;SDS011;23195;47.744;7.358;2024-01-10T07:26:49;112.07;;;42.63;;
37309;SDS011;23195;47.744;7.358;2024-01-10T07:29:25;129.60;;;48.47;;
37309;SDS011;23195;47.744;7.358;2024-01-10T07:32:06;129.47;;;46.67;;
37309;SDS011;23195;47.744;7.358;2024-01-10T07:34:47;132.43;;;49.23;;
37309;SDS011;23195;47.744;7.358;2024-01-10T07:37:15;145.43;;;55.97;;
37309;SDS011;23195;47.744;7.358;2024-01-10T07:39:46;119.57;;;45.80;;
37309;SDS011;23195;47.744;7.358;2024-01-10T07:42:23;110.40;;;42.33;;
37309;SDS011;23195;47.744;7.358;2024-01-10T07:45:07;112.97;;;43.40;;
37309;SDS011;23195;47.744;7.358;2024-01-10T07:47:35;104.20;;;40.03;;
37309;SDS011;23195;47.744;7.358;2024-01-10T07:50:05;100.83;;;38.90;;
37309;SDS011;23195;47.744;7.358;2024-01-10T07:52:52;97.20;;;37.77;;
37309;SDS011;23195;47.744;7.358;2024-01-10T07:55:26;91.60;;;37.93;;
37309;SDS011;23195;47.744;7.358;2024-01-10T07:58:03;103.83;;;38.60;;
37309;SDS011;23195;47.744;7.358;2024-01-10T08:00:41;96.00;;;38.87;;
37309;SDS011;23195;47.744;7.358;2024-01-10T08:03:17;95.23;;;37.60;;
37309;SDS011;23195;47.744;7.358;2024-01-10T08:05:43;97.53;;;38.40;;
37309;SDS011;23195;47.744;7.358;2024-01-10T08:08:12;97.43;;;38.50;;
37309;SDS011;23195;47.744;7.358;2024-01-10T08:10:56;95.77;;;38.00;;
37309;SDS011;23195;47.744;7.358;2024-01-10T08:13:27;103.60;;;40.57;;
37309;SDS011;23195;47.744;7.358;2024-01-10T08:15:55;102.73;;;37.30;;
37309;SDS011;23195;47.744;7.358;2024-01-10T08:18:30;97.67;;;38.03;;
37309;SDS011;23195;47.744;7.358;2024-01-10T08:21:07;96.00;;;36.10;;
37309;SDS011;23195;47.744;7.358;2024-01-10T08:23:53;96.70;;;38.17;;
37309;SDS011;23195;47.744;7.358;2024-01-10T08:26:34;98.70;;;37.77;;
37309;SDS011;23195;47.744;7.358;2024-01-10T08:29:12;99.60;;;37.90;;
37309;SDS011;23195;47.744;7.358;2024-01-10T08:31:48;97.70;;;39.10;;
37309;SDS011;23195;47.744;7.358;2024-01-10T08:34:29;95.77;;;36.23;;
37309;SDS011;23195;47.744;7.358;2024-01-10T08:37:05;95.17;;;37.67;;
37309;SDS011;23195;47.744;7.358;2024-01-10T08:39:57;96.27;;;39.03;;
37309;SDS011;23195;47.744;7.358;2024-01-10T08:42:36;97.67;;;40.00;;
37309;SDS011;23195;47.744;7.358;2024-01-10T08:45:05;107.60;;;41.17;;
37309;SDS011;23195;47.744;7.358;2024-01-10T08:48:11;109.77;;;44.97;;
37309;SDS011;23195;47.744;7.358;2024-01-10T08:50:47;96.83;;;38.27;;
37309;SDS011;23195;47.744;7.358;2024-01-10T08:53:26;95.50;;;38.60;;
37309;SDS011;23195;47.744;7.358;2024-01-10T08:56:04;95.90;;;37.73;;
37309;SDS011;23195;47.744;7.358;2024-01-10T08:59:06;90.90;;;37.00;;
37309;SDS011;23195;47.744;7.358;2024-01-10T09:05:18;101.53;;;36.87;;
37309;SDS011;23195;47.744;7.358;2024-01-10T09:08:24;95.77;;;37.13;;
37309;SDS011;23195;47.744;7.358;2024-01-10T09:10:58;93.83;;;36.93;;
37309;SDS011;23195;47.744;7.358;2024-01-10T09:13:29;98.03;;;38.87;;
37309;SDS011;23195;47.744;7.358;2024-01-10T09:16:08;96.80;;;36.57;;
37309;SDS011;23195;47.744;7.358;2024-01-10T09:18:46;106.00;;;38.77;;
37309;SDS011;23195;47.744;7.358;2024-01-10T09:21:19;94.73;;;36.47;;
37309;SDS011;23195;47.744;7.358;2024-01-10T09:23:55;96.63;;;36.07;;
37309;SDS011;23195;47.744;7.358;2024-01-10T09:26:24;92.87;;;35.20;;
37309;SDS011;23195;47.744;7.358;2024-01-10T09:28:59;88.47;;;35.10;;
37309;SDS011;23195;47.744;7.358;2024-01-10T09:31:35;87.90;;;35.47;;
37309;SDS011;23195;47.744;7.358;2024-01-10T09:34:26;90.50;;;32.50;;
37309;SDS011;23195;47.744;7.358;2024-01-10T09:37:11;83.83;;;32.80;;
37309;SDS011;23195;47.744;7.358;2024-01-10T09:39:37;87.77;;;33.37;;
37309;SDS011;23195;47.744;7.358;2024-01-10T09:42:18;84.33;;;31.90;;
37309;SDS011;23195;47.744;7.358;2024-01-10T09:44:58;88.30;;;34.17;;
37309;SDS011;23195;47.744;7.358;2024-01-10T09:50:58;76.90;;;30.87;;
37309;SDS011;23195;47.744;7.358;2024-01-10T09:57:34;75.07;;;30.37;;
37309;SDS011;23195;47.744;7.358;2024-01-10T10:00:39;84.03;;;32.03;;
37309;SDS011;23195;47.744;7.358;2024-01-10T10:03:52;74.27;;;30.27;;
37309;SDS011;23195;47.744;7.358;2024-01-10T10:06:58;75.10;;;31.87;;
37309;SDS011;23195;47.744;7.358;2024-01-10T10:10:19;73.40;;;31.97;;
37309;SDS011;23195;47.744;7.358;2024-01-10T10:16:24;85.73;;;31.43;;
37309;SDS011;23195;47.744;7.358;2024-01-10T10:18:53;80.27;;;32.73;;
37309;SDS011;23195;47.744;7.358;2024-01-10T10:21:33;75.10;;;30.97;;
37309;SDS011;23195;47.744;7.358;2024-01-10T10:27:16;69.23;;;28.67;;
37309;SDS011;23195;47.744;7.358;2024-01-10T10:30:10;75.53;;;30.90;;
37309;SDS011;23195;47.744;7.358;2024-01-10T10:32:38;76.57;;;29.20;;
37309;SDS011;23195;47.744;7.358;2024-01-10T10:35:04;75.70;;;30.70;;
37309;SDS011;23195;47.744;7.358;2024-01-10T10:37:56;94.27;;;37.37;;
37309;SDS011;23195;47.744;7.358;2024-01-10T10:40:56;73.90;;;30.43;;
37309;SDS011;23195;47.744;7.358;2024-01-10T10:43:46;81.03;;;35.30;;
37309;SDS011;23195;47.744;7.358;2024-01-10T10:46:42;78.97;;;31.80;;
37309;SDS011;23195;47.744;7.358;2024-01-10T10:49:42;71.03;;;29.67;;
37309;SDS011;23195;47.744;7.358;2024-01-10T10:52:29;80.33;;;30.77;;
37309;SDS011;23195;47.744;7.358;2024-01-10T10:55:09;71.60;;;27.77;;
37309;SDS011;23195;47.744;7.358;2024-01-10T10:57:49;71.70;;;30.20;;
37309;SDS011;23195;47.744;7.358;2024-01-10T11:00:26;71.23;;;28.87;;
37309;SDS011;23195;47.744;7.358;2024-01-10T11:06:09;72.13;;;30.37;;
37309;SDS011;23195;47.744;7.358;2024-01-10T11:15:32;72.83;;;31.10;;
37309;SDS011;23195;47.744;7.358;2024-01-10T11:18:28;71.43;;;31.83;;
37309;SDS011;23195;47.744;7.358;2024-01-10T11:27:05;63.63;;;29.43;;
37309;SDS011;23195;47.744;7.358;2024-01-10T11:30:10;59.87;;;27.23;;
37309;SDS011;23195;47.744;7.358;2024-01-10T11:32:49;75.60;;;31.77;;
37309;SDS011;23195;47.744;7.358;2024-01-10T11:35:25;58.77;;;27.53;;
37309;SDS011;23195;47.744;7.358;2024-01-10T11:38:02;59.80;;;28.13;;
37309;SDS011;23195;47.744;7.358;2024-01-10T11:40:59;58.83;;;26.60;;
37309;SDS011;23195;47.744;7.358;2024-01-10T11:43:31;57.03;;;27.40;;
37309;SDS011;23195;47.744;7.358;2024-01-10T11:46:07;57.50;;;26.30;;
37309;SDS011;23195;47.744;7.358;2024-01-10T11:48:43;58.00;;;27.13;;
37309;SDS011;23195;47.744;7.358;2024-01-10T11:51:11;55.03;;;26.47;;
37309;SDS011;23195;47.744;7.358;2024-01-10T11:53:53;63.03;;;28.07;;
37309;SDS011;23195;47.744;7.358;2024-01-10T11:56:39;53.37;;;26.07;;
37309;SDS011;23195;47.744;7.358;2024-01-10T11:59:11;51.47;;;24.53;;
37309;SDS011;23195;47.744;7.358;2024-01-10T12:01:41;51.67;;;24.53;;
37309;SDS011;23195;47.744;7.358;2024-01-10T12:04:12;53.73;;;25.50;;
37309;SDS011;23195;47.744;7.358;2024-01-10T12:06:39;57.20;;;24.23;;
37309;SDS011;23195;47.744;7.358;2024-01-10T12:12:48;43.03;;;21.27;;
37309;SDS011;23195;47.744;7.358;2024-01-10T12:15:24;50.53;;;22.03;;
37309;SDS011;23195;47.744;7.358;2024-01-10T12:17:52;48.43;;;22.57;;
37309;SDS011;23195;47.744;7.358;2024-01-10T12:20:18;44.00;;;21.07;;
37309;SDS011;23195;47.744;7.358;2024-01-10T12:23:07;49.07;;;22.57;;
37309;SDS011;23195;47.744;7.358;2024-01-10T12:25:37;49.40;;;23.07;;
37309;SDS011;23195;47.744;7.358;2024-01-10T12:28:16;45.20;;;22.23;;
37309;SDS011;23195;47.744;7.358;2024-01-10T12:30:42;49.37;;;23.13;;
37309;SDS011;23195;47.744;7.358;2024-01-10T12:33:17;54.40;;;25.40;;
37309;SDS011;23195;47.744;7.358;2024-01-10T12:36:09;51.13;;;24.97;;
37309;SDS011;23195;47.744;7.358;2024-01-10T12:38:43;61.30;;;26.60;;
37309;SDS011;23195;47.744;7.358;2024-01-10T12:41:32;49.80;;;23.73;;
37309;SDS011;23195;47.744;7.358;2024-01-10T12:44:03;49.40;;;23.30;;
37309;SDS011;23195;47.744;7.358;2024-01-10T12:46:52;49.37;;;22.93;;
37309;SDS011;23195;47.744;7.358;2024-01-10T12:52:31;47.37;;;23.43;;
37309;SDS011;23195;47.744;7.358;2024-01-10T12:55:07;44.33;;;22.77;;
37309;SDS011;23195;47.744;7.358;2024-01-10T12:57:36;49.60;;;23.07;;
37309;SDS011;23195;47.744;7.358;2024-01-10T13:00:15;48.27;;;23.43;;
37309;SDS011;23195;47.744;7.358;2024-01-10T13:02:54;53.63;;;24.17;;
37309;SDS011;23195;47.744;7.358;2024-01-10T13:05:23;50.80;;;24.80;;
37309;SDS011;23195;47.744;7.358;2024-01-10T13:07:59;46.43;;;22.47;;
37309;SDS011;23195;47.744;7.358;2024-01-10T13:10:35;49.23;;;23.87;;
37309;SDS011;23195;47.744;7.358;2024-01-10T13:13:04;54.27;;;24.73;;
37309;SDS011;23195;47.744;7.358;2024-01-10T13:15:50;49.57;;;23.60;;
37309;SDS011;23195;47.744;7.358;2024-01-10T13:18:23;52.80;;;24.63;;
37309;SDS011;23195;47.744;7.358;2024-01-10T13:20:57;47.10;;;23.23;;
37309;SDS011;23195;47.744;7.358;2024-01-10T13:23:33;51.40;;;24.03;;
37309;SDS011;23195;47.744;7.358;2024-01-10T13:26:04;51.43;;;24.93;;
37309;SDS011;23195;47.744;7.358;2024-01-10T13:28:32;46.33;;;23.47;;
37309;SDS011;23195;47.744;7.358;2024-01-10T13:31:32;44.97;;;22.70;;
37309;SDS011;23195;47.744;7.358;2024-01-10T13:34:01;49.17;;;24.10;;
37309;SDS011;23195;47.744;7.358;2024-01-10T13:36:32;49.90;;;24.03;;
37309;SDS011;23195;47.744;7.358;2024-01-10T13:39:03;48.90;;;23.30;;
37309;SDS011;23195;47.744;7.358;2024-01-10T13:41:53;45.60;;;22.73;;
37309;SDS011;23195;47.744;7.358;2024-01-10T13:44:57;52.67;;;24.33;;
37309;SDS011;23195;47.744;7.358;2024-01-10T13:47:23;48.27;;;23.07;;
37309;SDS011;23195;47.744;7.358;2024-01-10T13:50:12;51.00;;;23.20;;
37309;SDS011;23195;47.744;7.358;2024-01-10T13:52:58;54.80;;;24.00;;
37309;SDS011;23195;47.744;7.358;2024-01-10T13:55:57;47.67;;;23.93;;
37309;SDS011;23195;47.744;7.358;2024-01-10T13:58:37;49.03;;;24.10;;
37309;SDS011;23195;47.744;7.358;2024-01-10T14:01:06;51.97;;;24.80;;
37309;SDS011;23195;47.744;7.358;2024-01-10T14:03:44;54.80;;;25.33;;
37309;SDS011;23195;47.744;7.358;2024-01-10T14:06:41;52.90;;;24.37;;
37309;SDS011;23195;47.744;7.358;2024-01-10T14:09:12;50.67;;;24.30;;
37309;SDS011;23195;47.744;7.358;2024-01-10T14:11:56;49.53;;;25.43;;
37309;SDS011;23195;47.744;7.358;2024-01-10T14:14:33;54.60;;;25.43;;
37309;SDS011;23195;47.744;7.358;2024-01-10T14:19:55;57.13;;;28.00;;
37309;SDS011;23195;47.744;7.358;2024-01-10T14:22:31;54.70;;;26.73;;
37309;SDS011;23195;47.744;7.358;2024-01-10T14:25:07;63.23;;;27.43;;
37309;SDS011;23195;47.744;7.358;2024-01-10T14:27:45;58.00;;;26.93;;
37309;SDS011;23195;47.744;7.358;2024-01-10T14:30:18;56.77;;;28.17;;
37309;SDS011;23195;47.744;7.358;2024-01-10T14:32:57;60.07;;;28.17;;
37309;SDS011;23195;47.744;7.358;2024-01-10T14:35:33;60.17;;;27.83;;
37309;SDS011;23195;47.744;7.358;2024-01-10T14:38:20;62.27;;;27.93;;
37309;SDS011;23195;47.744;7.358;2024-01-10T14:40:49;64.60;;;29.27;;
37309;SDS011;23195;47.744;7.358;2024-01-10T14:43:28;60.90;;;28.20;;
37309;SDS011;23195;47.744;7.358;2024-01-10T14:46:11;67.87;;;29.83;;
37309;SDS011;23195;47.744;7.358;2024-01-10T14:49:08;64.33;;;30.23;;
37309;SDS011;23195;47.744;7.358;2024-01-10T14:51:37;60.57;;;27.10;;
37309;SDS011;23195;47.744;7.358;2024-01-10T14:54:12;62.43;;;27.97;;
37309;SDS011;23195;47.744;7.358;2024-01-10T14:56:43;56.87;;;27.23;;
37309;SDS011;23195;47.744;7.358;2024-01-10T14:59:11;63.20;;;28.60;;
37309;SDS011;23195;47.744;7.358;2024-01-10T15:02:04;58.37;;;28.10;;
37309;SDS011;23195;47.744;7.358;2024-01-10T15:04:42;62.13;;;27.93;;
37309;SDS011;23195;47.744;7.358;2024-01-10T15:07:19;55.10;;;25.57;;
37309;SDS011;23195;47.744;7.358;2024-01-10T15:09:48;58.73;;;26.33;;
37309;SDS011;23195;47.744;7.358;2024-01-10T15:12:16;52.70;;;24.77;;
37309;SDS011;23195;47.744;7.358;2024-01-10T15:14:53;53.30;;;24.47;;
37309;SDS011;23195;47.744;7.358;2024-01-10T15:17:25;58.83;;;26.17;;
37309;SDS011;23195;47.744;7.358;2024-01-10T15:19:55;55.53;;;26.67;;
37309;SDS011;23195;47.744;7.358;2024-01-10T15:22:30;60.70;;;27.27;;
37309;SDS011;23195;47.744;7.358;2024-01-10T15:25:06;61.07;;;27.93;;
37309;SDS011;23195;47.744;7.358;2024-01-10T15:27:41;61.07;;;28.43;;
37309;SDS011;23195;47.744;7.358;2024-01-10T15:30:19;58.23;;;26.93;;
37309;SDS011;23195;47.744;7.358;2024-01-10T15:32:55;58.23;;;27.23;;
37309;SDS011;23195;47.744;7.358;2024-01-10T15:35:39;57.80;;;26.60;;
37309;SDS011;23195;47.744;7.358;2024-01-10T15:38:15;61.73;;;28.07;;
37309;SDS011;23195;47.744;7.358;2024-01-10T15:40:51;63.23;;;27.70;;
37309;SDS011;23195;47.744;7.358;2024-01-10T15:43:26;62.10;;;28.50;;
37309;SDS011;23195;47.744;7.358;2024-01-10T15:46:03;57.40;;;28.33;;
37309;SDS011;23195;47.744;7.358;2024-01-10T15:48:37;67.73;;;30.90;;
37309;SDS011;23195;47.744;7.358;2024-01-10T15:51:15;61.13;;;28.97;;
37309;SDS011;23195;47.744;7.358;2024-01-10T15:53:46;62.50;;;28.07;;
37309;SDS011;23195;47.744;7.358;2024-01-10T15:56:17;63.13;;;30.97;;
37309;SDS011;23195;47.744;7.358;2024-01-10T15:58:46;63.00;;;29.20;;
37309;SDS011;23195;47.744;7.358;2024-01-10T16:01:29;72.03;;;31.97;;
37309;SDS011;23195;47.744;7.358;2024-01-10T16:04:05;65.80;;;30.80;;
37309;SDS011;23195;47.744;7.358;2024-01-10T16:06:44;65.73;;;29.10;;
37309;SDS011;23195;47.744;7.358;2024-01-10T16:09:19;70.03;;;31.30;;
37309;SDS011;23195;47.744;7.358;2024-01-10T16:11:52;97.97;;;44.57;;
37309;SDS011;23195;47.744;7.358;2024-01-10T16:14:28;72.73;;;32.80;;
37309;SDS011;23195;47.744;7.358;2024-01-10T16:16:57;74.90;;;33.13;;
37309;SDS011;23195;47.744;7.358;2024-01-10T16:19:25;86.67;;;36.67;;
37309;SDS011;23195;47.744;7.358;2024-01-10T16:21:51;96.67;;;44.67;;
37309;SDS011;23195;47.744;7.358;2024-01-10T16:24:36;91.93;;;42.23;;
37309;SDS011;23195;47.744;7.358;2024-01-10T16:27:32;81.07;;;37.80;;
37309;SDS011;23195;47.744;7.358;2024-01-10T16:30:00;81.77;;;36.63;;
37309;SDS011;23195;47.744;7.358;2024-01-10T16:32:27;86.90;;;40.40;;
37309;SDS011;23195;47.744;7.358;2024-01-10T16:35:03;71.83;;;33.83;;
37309;SDS011;23195;47.744;7.358;2024-01-10T16:37:40;70.83;;;33.27;;
37309;SDS011;23195;47.744;7.358;2024-01-10T16:40:11;76.37;;;34.50;;
37309;SDS011;23195;47.744;7.358;2024-01-10T16:42:46;82.93;;;37.30;;
37309;SDS011;23195;47.744;7.358;2024-01-10T16:45:16;172.10;;;73.07;;
37309;SDS011;23195;47.744;7.358;2024-01-10T16:48:15;100.23;;;45.97;;
37309;SDS011;23195;47.744;7.358;2024-01-10T16:50:54;90.17;;;42.30;;
37309;SDS011;23195;47.744;7.358;2024-01-10T16:56:16;87.83;;;43.47;;
37309;SDS011;23195;47.744;7.358;2024-01-10T16:58:52;81.03;;;37.53;;
37309;SDS011;23195;47.744;7.358;2024-01-10T17:01:20;78.03;;;36.60;;
37309;SDS011;23195;47.744;7.358;2024-01-10T17:04:04;76.30;;;35.27;;
37309;SDS011;23195;47.744;7.358;2024-01-10T17:06:41;77.93;;;35.47;;
37309;SDS011;23195;47.744;7.358;2024-01-10T17:09:22;93.80;;;44.97;;
37309;SDS011;23195;47.744;7.358;2024-01-10T17:12:01;80.20;;;35.50;;
37309;SDS011;23195;47.744;7.358;2024-01-10T17:14:46;85.03;;;37.17;;
37309;SDS011;23195;47.744;7.358;2024-01-10T17:17:24;83.80;;;36.77;;
37309;SDS011;23195;47.744;7.358;2024-01-10T17:20:05;77.67;;;35.50;;
37309;SDS011;23195;47.744;7.358;2024-01-10T17:22:44;86.00;;;37.77;;
37309;SDS011;23195;47.744;7.358;2024-01-10T17:25:10;75.53;;;36.30;;
37309;SDS011;23195;47.744;7.358;2024-01-10T17:27:47;80.37;;;36.13;;
37309;SDS011;23195;47.744;7.358;2024-01-10T17:30:23;81.73;;;38.10;;
37309;SDS011;23195;47.744;7.358;2024-01-10T17:32:52;71.20;;;33.53;;
37309;SDS011;23195;47.744;7.358;2024-01-10T17:35:41;81.23;;;38.53;;
37309;SDS011;23195;47.744;7.358;2024-01-10T17:38:16;75.07;;;34.67;;
37309;SDS011;23195;47.744;7.358;2024-01-10T17:40:47;82.50;;;38.20;;
37309;SDS011;23195;47.744;7.358;2024-01-10T17:43:26;73.97;;;33.43;;
37309;SDS011;23195;47.744;7.358;2024-01-10T17:46:09;68.00;;;31.57;;
37309;SDS011;23195;47.744;7.358;2024-01-10T17:48:48;69.47;;;31.63;;
37309;SDS011;23195;47.744;7.358;2024-01-10T17:51:19;70.53;;;31.43;;
37309;SDS011;23195;47.744;7.358;2024-01-10T17:53:57;72.93;;;35.13;;
37309;SDS011;23195;47.744;7.358;2024-01-10T17:56:28;75.70;;;35.97;;
37309;SDS011;23195;47.744;7.358;2024-01-10T17:59:06;70.63;;;33.10;;
37309;SDS011;23195;47.744;7.358;2024-01-10T18:01:42;68.63;;;34.10;;
37309;SDS011;23195;47.744;7.358;2024-01-10T18:04:21;76.50;;;36.00;;
37309;SDS011;23195;47.744;7.358;2024-01-10T18:06:57;78.30;;;36.83;;
37309;SDS011;23195;47.744;7.358;2024-01-10T18:09:36;87.03;;;38.73;;
37309;SDS011;23195;47.744;7.358;2024-01-10T18:12:04;79.13;;;35.93;;
37309;SDS011;23195;47.744;7.358;2024-01-10T18:14:41;78.63;;;35.77;;
37309;SDS011;23195;47.744;7.358;2024-01-10T18:17:16;84.03;;;39.37;;
37309;SDS011;23195;47.744;7.358;2024-01-10T18:19:50;85.17;;;37.40;;
37309;SDS011;23195;47.744;7.358;2024-01-10T18:22:36;84.33;;;37.13;;
37309;SDS011;23195;47.744;7.358;2024-01-10T18:25:24;77.07;;;36.30;;
37309;SDS011;23195;47.744;7.358;2024-01-10T18:27:50;84.97;;;38.40;;
37309;SDS011;23195;47.744;7.358;2024-01-10T18:30:25;85.93;;;39.33;;
37309;SDS011;23195;47.744;7.358;2024-01-10T18:33:05;84.87;;;37.30;;
37309;SDS011;23195;47.744;7.358;2024-01-10T18:35:39;84.40;;;37.80;;
37309;SDS011;23195;47.744;7.358;2024-01-10T18:38:08;89.93;;;39.37;;
37309;SDS011;23195;47.744;7.358;2024-01-10T18:40:46;80.03;;;38.03;;
37309;SDS011;23195;47.744;7.358;2024-01-10T18:43:28;80.40;;;37.37;;
37309;SDS011;23195;47.744;7.358;2024-01-10T18:45:57;81.10;;;37.90;;
37309;SDS011;23195;47.744;7.358;2024-01-10T18:48:25;88.03;;;40.63;;
37309;SDS011;23195;47.744;7.358;2024-01-10T18:50:59;82.37;;;37.83;;
37309;SDS011;23195;47.744;7.358;2024-01-10T18:53:26;80.80;;;36.03;;
37309;SDS011;23195;47.744;7.358;2024-01-10T18:55:56;84.37;;;40.47;;
37309;SDS011;23195;47.744;7.358;2024-01-10T18:58:32;81.60;;;39.83;;
37309;SDS011;23195;47.744;7.358;2024-01-10T19:04:01;97.43;;;44.33;;
37309;SDS011;23195;47.744;7.358;2024-01-10T19:06:27;85.77;;;39.83;;
37309;SDS011;23195;47.744;7.358;2024-01-10T19:08:59;90.60;;;39.53;;
37309;SDS011;23195;47.744;7.358;2024-01-10T19:11:27;90.37;;;42.67;;
37309;SDS011;23195;47.744;7.358;2024-01-10T19:13:56;97.07;;;43.80;;
37309;SDS011;23195;47.744;7.358;2024-01-10T19:16:32;91.70;;;40.83;;
37309;SDS011;23195;47.744;7.358;2024-01-10T19:19:15;99.90;;;44.77;;
37309;SDS011;23195;47.744;7.358;2024-01-10T19:21:53;95.70;;;42.97;;
37309;SDS011;23195;47.744;7.358;2024-01-10T19:24:37;114.63;;;49.07;;
37309;SDS011;23195;47.744;7.358;2024-01-10T19:27:06;108.37;;;47.60;;
37309;SDS011;23195;47.744;7.358;2024-01-10T19:29:32;114.70;;;50.27;;
37309;SDS011;23195;47.744;7.358;2024-01-10T19:32:03;118.00;;;53.73;;
37309;SDS011;23195;47.744;7.358;2024-01-10T19:34:31;110.20;;;49.23;;
37309;SDS011;23195;47.744;7.358;2024-01-10T19:37:00;108.67;;;46.87;;
37309;SDS011;23195;47.744;7.358;2024-01-10T19:39:36;132.37;;;53.73;;
37309;SDS011;23195;47.744;7.358;2024-01-10T19:42:06;125.23;;;50.67;;
37309;SDS011;23195;47.744;7.358;2024-01-10T19:44:42;120.90;;;50.30;;
37309;SDS011;23195;47.744;7.358;2024-01-10T19:47:18;98.33;;;43.40;;
37309;SDS011;23195;47.744;7.358;2024-01-10T19:49:48;99.67;;;44.83;;
37309;SDS011;23195;47.744;7.358;2024-01-10T19:52:19;96.40;;;41.47;;
37309;SDS011;23195;47.744;7.358;2024-01-10T19:54:45;95.13;;;40.40;;
37309;SDS011;23195;47.744;7.358;2024-01-10T20:00:32;98.50;;;42.70;;
37309;SDS011;23195;47.744;7.358;2024-01-10T20:03:10;99.80;;;42.00;;
37309;SDS011;23195;47.744;7.358;2024-01-10T20:05:54;92.17;;;40.97;;
37309;SDS011;23195;47.744;7.358;2024-01-10T20:08:29;109.07;;;47.93;;
37309;SDS011;23195;47.744;7.358;2024-01-10T20:11:05;103.13;;;50.47;;
37309;SDS011;23195;47.744;7.358;2024-01-10T20:13:33;106.13;;;50.37;;
37309;SDS011;23195;47.744;7.358;2024-01-10T20:16:24;119.20;;;55.73;;
37309;SDS011;23195;47.744;7.358;2024-01-10T20:18:50;102.20;;;45.87;;
37309;SDS011;23195;47.744;7.358;2024-01-10T20:21:26;95.80;;;42.03;;
37309;SDS011;23195;47.744;7.358;2024-01-10T20:24:00;91.57;;;42.07;;
37309;SDS011;23195;47.744;7.358;2024-01-10T20:26:43;101.27;;;42.93;;
37309;SDS011;23195;47.744;7.358;2024-01-10T20:29:19;89.43;;;40.40;;
37309;SDS011;23195;47.744;7.358;2024-01-10T20:31:48;99.83;;;47.20;;
37309;SDS011;23195;47.744;7.358;2024-01-10T20:34:25;107.77;;;47.63;;
37309;SDS011;23195;47.744;7.358;2024-01-10T20:37:08;96.87;;;42.40;;
37309;SDS011;23195;47.744;7.358;2024-01-10T20:39:52;94.30;;;41.80;;
37309;SDS011;23195;47.744;7.358;2024-01-10T20:42:30;97.53;;;41.43;;
37309;SDS011;23195;47.744;7.358;2024-01-10T20:45:06;101.93;;;40.93;;
37309;SDS011;23195;47.744;7.358;2024-01-10T20:47:50;93.17;;;38.37;;
37309;SDS011;23195;47.744;7.358;2024-01-10T20:50:18;88.83;;;38.80;;
37309;SDS011;23195;47.744;7.358;2024-01-10T20:53:04;95.60;;;39.43;;
37309;SDS011;23195;47.744;7.358;2024-01-10T20:55:42;96.37;;;39.90;;
37309;SDS011;23195;47.744;7.358;2024-01-10T20:58:10;95.27;;;40.50;;
37309;SDS011;23195;47.744;7.358;2024-01-10T21:00:42;95.30;;;39.57;;
37309;SDS011;23195;47.744;7.358;2024-01-10T21:03:18;89.23;;;39.50;;
37309;SDS011;23195;47.744;7.358;2024-01-10T21:06:00;92.87;;;38.80;;
37309;SDS011;23195;47.744;7.358;2024-01-10T21:08:29;99.20;;;42.03;;
37309;SDS011;23195;47.744;7.358;2024-01-10T21:11:23;98.83;;;41.20;;
37309;SDS011;23195;47.744;7.358;2024-01-10T21:14:02;93.77;;;39.67;;
37309;SDS011;23195;47.744;7.358;2024-01-10T21:16:39;98.07;;;40.73;;
37309;SDS011;23195;47.744;7.358;2024-01-10T21:19:18;92.50;;;39.10;;
37309;SDS011;23195;47.744;7.358;2024-01-10T21:21:58;91.20;;;39.43;;
37309;SDS011;23195;47.744;7.358;2024-01-10T21:24:47;97.37;;;43.07;;
37309;SDS011;23195;47.744;7.358;2024-01-10T21:27:23;88.60;;;38.47;;
37309;SDS011;23195;47.744;7.358;2024-01-10T21:29:57;94.37;;;38.97;;
37309;SDS011;23195;47.744;7.358;2024-01-10T21:32:29;94.77;;;42.10;;
37309;SDS011;23195;47.744;7.358;2024-01-10T21:35:04;95.93;;;40.17;;
37309;SDS011;23195;47.744;7.358;2024-01-10T21:37:35;90.47;;;37.43;;
37309;SDS011;23195;47.744;7.358;2024-01-10T21:40:22;93.97;;;38.00;;
37309;SDS011;23195;47.744;7.358;2024-01-10T21:42:53;85.73;;;36.50;;
37309;SDS011;23195;47.744;7.358;2024-01-10T21:45:29;87.57;;;36.87;;
37309;SDS011;23195;47.744;7.358;2024-01-10T21:47:55;87.77;;;36.50;;
37309;SDS011;23195;47.744;7.358;2024-01-10T21:50:24;86.97;;;37.20;;
37309;SDS011;23195;47.744;7.358;2024-01-10T21:52:53;96.27;;;39.27;;
37309;SDS011;23195;47.744;7.358;2024-01-10T21:55:36;87.97;;;39.17;;
37309;SDS011;23195;47.744;7.358;2024-01-10T21:58:14;92.33;;;37.00;;
37309;SDS011;23195;47.744;7.358;2024-01-10T22:01:02;89.50;;;36.77;;
37309;SDS011;23195;47.744;7.358;2024-01-10T22:03:32;82.80;;;35.27;;
37309;SDS011;23195;47.744;7.358;2024-01-10T22:06:02;76.70;;;34.40;;
37309;SDS011;23195;47.744;7.358;2024-01-10T22:08:56;81.80;;;34.07;;
37309;SDS011;23195;47.744;7.358;2024-01-10T22:11:24;80.57;;;34.47;;
37309;SDS011;23195;47.744;7.358;2024-01-10T22:14:18;76.20;;;33.10;;
37309;SDS011;23195;47.744;7.358;2024-01-10T22:16:52;76.33;;;32.57;;
37309;SDS011;23195;47.744;7.358;2024-01-10T22:19:41;74.67;;;32.67;;
37309;SDS011;23195;47.744;7.358;2024-01-10T22:22:33;86.90;;;36.67;;
37309;SDS011;23195;47.744;7.358;2024-01-10T22:24:59;79.87;;;35.00;;
37309;SDS011;23195;47.744;7.358;2024-01-10T22:27:28;78.27;;;32.40;;
37309;SDS011;23195;47.744;7.358;2024-01-10T22:30:07;76.30;;;32.97;;
37309;SDS011;23195;47.744;7.358;2024-01-10T22:32:38;81.00;;;33.57;;
37309;SDS011;23195;47.744;7.358;2024-01-10T22:35:11;80.30;;;33.57;;
37309;SDS011;23195;47.744;7.358;2024-01-10T22:37:46;81.03;;;33.70;;
37309;SDS011;23195;47.744;7.358;2024-01-10T22:40:12;76.37;;;33.23;;
37309;SDS011;23195;47.744;7.358;2024-01-10T22:42:48;81.90;;;33.30;;
37309;SDS011;23195;47.744;7.358;2024-01-10T22:45:20;80.97;;;35.50;;
37309;SDS011;23195;47.744;7.358;2024-01-10T22:50:55;79.80;;;32.10;;
37309;SDS011;23195;47.744;7.358;2024-01-10T22:53:25;83.13;;;35.70;;
37309;SDS011;23195;47.744;7.358;2024-01-10T22:56:04;114.33;;;55.17;;
37309;SDS011;23195;47.744;7.358;2024-01-10T22:58:44;81.17;;;34.93;;
37309;SDS011;23195;47.744;7.358;2024-01-10T23:01:10;88.07;;;37.33;;
37309;SDS011;23195;47.744;7.358;2024-01-10T23:03:50;82.87;;;34.93;;
37309;SDS011;23195;47.744;7.358;2024-01-10T23:06:26;80.60;;;34.13;;